Time;durP1;ratioP1;P1;durP2;ratioP2;P2;SDS_P1;SDS_P2;PMS_P1;PMS_P2;Temp;Humidity;BMP_temperature;BMP_pressure;BME280_temperature;BME280_humidity;BME280_pressure;Samples;Min_cycle;Max_cycle;Signal;HPM_P1;HPM_P2
2021/12/04 00:02:25;;;;;;;10.07;7.13;;;;;;;;;;4972029;28;20046;-70
2021/12/04 00:04:53;;;;;;;13.38;7.65;;;;;;;;;;4970122;28;20478;-68
2021/12/04 00:07:22;;;;;;;10.82;6.03;;;;;;;;;;4958022;28;20546;-68
2021/12/04 00:09:50;;;;;;;10.18;6.00;;;;;;;;;;4953379;28;20031;-71
2021/12/04 00:12:18;;;;;;;7.07;4.95;;;;;;;;;;4952568;28;20158;-72
2021/12/04 00:14:45;;;;;;;6.43;3.83;;;;;;;;;;4951781;28;20046;-70
2021/12/04 00:17:11;;;;;;;6.18;3.40;;;;;;;;;;4952992;28;20047;-68
2021/12/04 00:19:37;;;;;;;4.00;2.83;;;;;;;;;;4953292;28;20030;-66
2021/12/04 00:22:04;;;;;;;6.05;2.80;;;;;;;;;;4952574;28;20039;-66
2021/12/04 00:24:29;;;;;;;3.92;2.22;;;;;;;;;;4951846;28;20408;-66
2021/12/04 00:26:55;;;;;;;4.93;2.60;;;;;;;;;;4952513;28;20147;-66
2021/12/04 00:29:22;;;;;;;3.50;2.47;;;;;;;;;;4966685;28;20113;-67
2021/12/04 00:31:54;;;;;;;4.90;2.97;;;;;;;;;;4952464;28;20407;-72
2021/12/04 00:34:22;;;;;;;4.80;3.20;;;;;;;;;;4952676;28;20368;-66
2021/12/04 00:50:30;;;;;;;7.35;4.78;;;;;;;;;;4956103;28;20038;-67
2021/12/04 00:52:56;;;;;;;8.10;5.82;;;;;;;;;;4956128;28;20035;-67
2021/12/04 00:55:22;;;;;;;8.38;5.32;;;;;;;;;;4955334;28;20105;-68
2021/12/04 00:57:48;;;;;;;5.95;3.40;;;;;;;;;;4955917;28;20031;-68
2021/12/04 01:00:14;;;;;;;8.55;4.60;;;;;;;;;;4955478;28;20039;-68
2021/12/04 01:02:42;;;;;;;8.52;5.28;;;;;;;;;;4955550;28;20466;-67
2021/12/04 01:05:09;;;;;;;9.40;6.32;;;;;;;;;;4956615;29;20407;-67
2021/12/04 01:07:35;;;;;;;13.50;7.18;;;;;;;;;;4955419;28;20051;-66
2021/12/04 01:10:03;;;;;;;14.38;7.78;;;;;;;;;;4954161;28;20074;-66
2021/12/04 01:12:29;;;;;;;14.43;7.35;;;;;;;;;;4955362;28;20055;-66
2021/12/04 01:14:55;;;;;;;22.42;10.65;;;;;;;;;;4954906;28;20047;-66
2021/12/04 01:17:21;;;;;;;19.25;8.98;;;;;;;;;;4954775;28;20031;-66
2021/12/04 01:19:47;;;;;;;25.88;11.80;;;;;;;;;;4955421;28;20039;-68
2021/12/04 01:22:13;;;;;;;23.67;11.45;;;;;;;;;;4954183;28;20037;-64
2021/12/04 01:24:38;;;;;;;30.02;14.15;;;;;;;;;;4955107;28;20051;-69
2021/12/04 01:27:04;;;;;;;21.65;11.48;;;;;;;;;;4956042;28;20043;-69
2021/12/04 01:29:30;;;;;;;24.45;12.02;;;;;;;;;;4954811;28;20035;-66
2021/12/04 01:31:56;;;;;;;24.58;11.50;;;;;;;;;;4954592;28;20383;-68
2021/12/04 01:34:22;;;;;;;20.55;10.65;;;;;;;;;;4955861;28;20035;-66
2021/12/04 01:36:47;;;;;;;21.08;9.75;;;;;;;;;;4955588;28;20521;-65
2021/12/04 01:39:13;;;;;;;19.58;9.50;;;;;;;;;;4954774;28;20047;-66
2021/12/04 01:41:39;;;;;;;18.77;9.45;;;;;;;;;;4954102;28;20483;-68
2021/12/04 01:44:06;;;;;;;20.95;10.48;;;;;;;;;;4954718;28;20110;-66
2021/12/04 01:46:32;;;;;;;18.45;10.30;;;;;;;;;;4948035;28;20019;-66
2021/12/04 01:48:58;;;;;;;18.10;9.82;;;;;;;;;;4967241;28;20041;-71
2021/12/04 01:51:24;;;;;;;17.08;9.73;;;;;;;;;;4973841;28;20031;-66
2021/12/04 01:53:50;;;;;;;17.40;9.75;;;;;;;;;;4973159;28;20039;-66
2021/12/04 01:56:17;;;;;;;18.05;9.88;;;;;;;;;;4973753;28;20030;-66
2021/12/04 01:58:43;;;;;;;19.35;10.38;;;;;;;;;;4972721;28;20027;-66
2021/12/04 02:01:10;;;;;;;15.27;9.15;;;;;;;;;;4974208;28;20027;-66
2021/12/04 02:03:37;;;;;;;17.00;9.68;;;;;;;;;;4973842;28;20541;-67
2021/12/04 02:06:03;;;;;;;17.02;9.20;;;;;;;;;;4974961;28;20073;-66
2021/12/04 02:08:29;;;;;;;18.42;8.98;;;;;;;;;;4964218;28;20039;-66
2021/12/04 02:11:00;;;;;;;18.23;10.20;;;;;;;;;;4954222;28;20027;-65
2021/12/04 02:13:26;;;;;;;17.05;9.70;;;;;;;;;;4954728;28;20062;-66
2021/12/04 02:15:53;;;;;;;60.05;9.95;;;;;;;;;;4953942;28;20485;-65
2021/12/04 02:18:21;;;;;;;19.13;11.23;;;;;;;;;;4953582;28;20106;-66
2021/12/04 02:20:47;;;;;;;19.05;10.55;;;;;;;;;;4953588;28;20030;-66
2021/12/04 02:23:13;;;;;;;22.23;11.00;;;;;;;;;;4954230;28;20058;-66
2021/12/04 02:25:39;;;;;;;70.47;11.95;;;;;;;;;;4954272;28;20031;-67
2021/12/04 02:28:07;;;;;;;72.85;12.15;;;;;;;;;;4953478;28;20039;-67
2021/12/04 02:30:36;;;;;;;80.43;13.00;;;;;;;;;;4953938;28;20094;-66
2021/12/04 02:33:11;;;;;;;26.88;12.68;;;;;;;;;;4953519;28;20042;-67
2021/12/04 02:35:39;;;;;;;21.80;10.88;;;;;;;;;;4954317;28;20040;-67
2021/12/04 02:38:05;;;;;;;23.65;12.25;;;;;;;;;;4953988;28;20027;-67
2021/12/04 02:40:31;;;;;;;20.75;11.27;;;;;;;;;;4953435;28;20402;-67
2021/12/04 02:42:57;;;;;;;22.23;11.18;;;;;;;;;;4954046;28;20032;-67
2021/12/04 02:45:23;;;;;;;22.85;12.57;;;;;;;;;;4953859;28;20039;-65
2021/12/04 02:47:48;;;;;;;131.70;15.80;;;;;;;;;;4953512;28;20035;-67
2021/12/04 02:50:16;;;;;;;110.28;14.30;;;;;;;;;;4984767;28;20039;-66
2021/12/04 02:52:43;;;;;;;74.10;13.40;;;;;;;;;;4954068;28;20031;-66
2021/12/04 02:55:09;;;;;;;21.80;10.70;;;;;;;;;;4953414;28;20981;-67
2021/12/04 02:57:36;;;;;;;28.40;11.40;;;;;;;;;;4954030;28;20031;-67
2021/12/04 03:00:04;;;;;;;18.75;11.05;;;;;;;;;;4955787;28;20039;-65
2021/12/04 03:02:29;;;;;;;26.60;12.75;;;;;;;;;;4958773;28;20538;-67
2021/12/04 03:04:57;;;;;;;27.15;13.10;;;;;;;;;;4954264;28;20043;-65
2021/12/04 03:07:24;;;;;;;27.92;11.98;;;;;;;;;;4984731;28;20023;-66
2021/12/04 03:09:51;;;;;;;25.10;11.85;;;;;;;;;;4953748;28;20035;-66
2021/12/04 03:12:19;;;;;;;27.90;11.80;;;;;;;;;;4953554;28;20074;-66
2021/12/04 03:14:45;;;;;;;30.40;11.02;;;;;;;;;;4953063;28;20043;-67
2021/12/04 03:17:11;;;;;;;31.52;9.98;;;;;;;;;;4952236;28;20049;-70
2021/12/04 03:19:39;;;;;;;17.85;9.75;;;;;;;;;;4953511;28;20558;-66
2021/12/04 03:22:06;;;;;;;16.90;9.15;;;;;;;;;;4952873;28;20102;-65
2021/12/04 03:24:35;;;;;;;18.75;11.20;;;;;;;;;;4952592;28;20047;-68
2021/12/04 03:27:00;;;;;;;29.00;12.43;;;;;;;;;;4952080;28;20043;-67
2021/12/04 03:29:29;;;;;;;26.77;13.27;;;;;;;;;;4953632;29;20055;-67
2021/12/04 03:42:53;;;;;;;18.90;10.70;;;;;;;;;;4952702;28;20114;-66
2021/12/04 03:45:19;;;;;;;16.67;9.85;;;;;;;;;;4952348;29;20049;-66
2021/12/04 03:47:48;;;;;;;18.67;10.63;;;;;;;;;;4952482;29;20027;-66
2021/12/04 03:50:14;;;;;;;16.77;10.23;;;;;;;;;;4952133;28;20150;-67
2021/12/04 03:52:40;;;;;;;23.10;9.93;;;;;;;;;;4952200;29;20125;-67
2021/12/04 03:55:08;;;;;;;17.17;10.05;;;;;;;;;;4952684;28;20023;-66
2021/12/04 03:57:34;;;;;;;17.58;9.88;;;;;;;;;;4952228;29;20068;-67
2021/12/04 04:00:01;;;;;;;28.63;9.50;;;;;;;;;;4952561;28;20027;-67
2021/12/04 04:02:37;;;;;;;15.93;9.25;;;;;;;;;;4951854;28;20051;-66
2021/12/04 04:05:04;;;;;;;118.47;12.93;;;;;;;;;;4950959;28;20035;-68
2021/12/04 04:07:30;;;;;;;152.30;12.75;;;;;;;;;;4952316;28;20024;-67
2021/12/04 04:09:56;;;;;;;117.32;14.15;;;;;;;;;;4963582;28;20503;-67
2021/12/04 04:12:22;;;;;;;32.13;10.55;;;;;;;;;;4970382;28;20023;-68
2021/12/04 04:14:48;;;;;;;25.42;14.18;;;;;;;;;;4970849;28;20433;-67
2021/12/04 04:17:13;;;;;;;29.23;15.25;;;;;;;;;;4969656;28;20190;-66
2021/12/04 04:19:39;;;;;;;32.05;15.50;;;;;;;;;;4961666;28;20114;-68
2021/12/04 04:22:05;;;;;;;26.77;14.63;;;;;;;;;;4954582;28;20037;-67
2021/12/04 04:24:34;;;;;;;32.30;13.82;;;;;;;;;;4968405;28;20049;-66
2021/12/04 04:27:01;;;;;;;33.22;11.57;;;;;;;;;;4973291;28;20051;-66
2021/12/04 04:29:27;;;;;;;19.05;9.10;;;;;;;;;;4974856;28;20039;-67
2021/12/04 04:31:55;;;;;;;10.02;6.90;;;;;;;;;;4973945;28;20039;-65
2021/12/04 04:34:36;;;;;;;11.40;6.18;;;;;;;;;;4974424;28;20114;-66
2021/12/04 04:59:15;;;;;;;6.05;4.60;;;;;;;;;;4975173;28;20063;-67
2021/12/04 05:12:24;;;;;;;7.50;4.13;;;;;;;;;;4974758;28;20034;-68
2021/12/04 05:14:56;;;;;;;8.68;5.30;;;;;;;;;;4974706;28;20030;-70
2021/12/04 05:18:08;;;;;;;11.60;4.95;;;;;;;;;;4975654;28;20030;-71
2021/12/04 05:20:21;;;;;;;8.27;4.40;;;;;;;;;;4976324;28;20059;-68
2021/12/04 05:22:47;;;;;;;9.75;5.22;;;;;;;;;;4974621;28;20035;-68
2021/12/04 05:25:13;;;;;;;7.53;4.40;;;;;;;;;;4975046;28;20110;-68
2021/12/04 05:27:42;;;;;;;6.93;4.63;;;;;;;;;;4991176;28;20063;-70
2021/12/04 05:30:08;;;;;;;7.82;4.50;;;;;;;;;;4994144;28;20033;-67
2021/12/04 05:32:34;;;;;;;7.18;4.50;;;;;;;;;;4994719;28;20046;-68
2021/12/04 05:35:00;;;;;;;6.32;4.20;;;;;;;;;;4994121;28;20108;-67
2021/12/04 05:37:26;;;;;;;9.65;4.65;;;;;;;;;;4994716;28;20038;-67
2021/12/04 05:39:51;;;;;;;6.95;4.88;;;;;;;;;;4994116;28;20105;-67
2021/12/04 05:42:17;;;;;;;9.77;5.18;;;;;;;;;;4994396;28;20038;-66
2021/12/04 05:44:44;;;;;;;8.32;5.47;;;;;;;;;;4993797;28;20089;-67
2021/12/04 05:47:24;;;;;;;10.63;6.28;;;;;;;;;;4993853;28;20052;-67
2021/12/04 05:50:21;;;;;;;9.95;6.07;;;;;;;;;;4994291;28;20034;-67
2021/12/04 05:52:51;;;;;;;11.05;6.32;;;;;;;;;;4993884;28;20038;-68
2021/12/04 05:55:19;;;;;;;18.02;8.60;;;;;;;;;;4995041;28;20037;-68
2021/12/04 05:57:46;;;;;;;20.27;8.57;;;;;;;;;;4994341;28;20026;-68
2021/12/04 06:00:18;;;;;;;15.10;7.40;;;;;;;;;;4994092;28;20023;-68
2021/12/04 06:02:45;;;;;;;12.70;7.10;;;;;;;;;;4993564;28;20034;-67
2021/12/04 06:05:12;;;;;;;14.25;7.50;;;;;;;;;;4994006;28;20113;-68
2021/12/04 06:07:38;;;;;;;17.75;9.25;;;;;;;;;;4992885;28;20125;-67
2021/12/04 06:10:05;;;;;;;19.65;9.70;;;;;;;;;;4993270;28;20520;-68
2021/12/04 06:12:31;;;;;;;16.75;10.18;;;;;;;;;;4993739;28;20147;-67
2021/12/04 06:14:57;;;;;;;13.45;7.18;;;;;;;;;;4993570;28;20064;-67
2021/12/04 06:17:25;;;;;;;12.82;6.97;;;;;;;;;;4993333;28;20113;-67
2021/12/04 06:22:42;;;;;;;14.00;6.80;;;;;;;;;;4993571;28;20042;-68
2021/12/04 06:25:16;;;;;;;15.32;8.10;;;;;;;;;;4994116;28;20129;-67
2021/12/04 06:27:43;;;;;;;13.02;7.53;;;;;;;;;;5001875;28;20077;-67
2021/12/04 06:30:13;;;;;;;19.77;6.20;;;;;;;;;;4993280;28;20393;-67
2021/12/04 06:32:39;;;;;;;81.65;6.30;;;;;;;;;;4993776;28;20399;-68
2021/12/04 06:35:08;;;;;;;31.20;5.75;;;;;;;;;;4993068;28;20050;-67
2021/12/04 06:37:34;;;;;;;32.80;7.18;;;;;;;;;;4993541;28;20117;-67
2021/12/04 06:40:01;;;;;;;18.38;4.00;;;;;;;;;;4993283;28;20101;-67
2021/12/04 06:42:27;;;;;;;7.00;4.10;;;;;;;;;;4993315;28;20037;-67
2021/12/04 06:44:56;;;;;;;15.95;4.88;;;;;;;;;;4993087;28;20038;-66
2021/12/04 06:47:23;;;;;;;16.60;5.78;;;;;;;;;;4993363;28;20152;-68
2021/12/04 06:49:52;;;;;;;27.50;6.05;;;;;;;;;;4994128;28;20457;-68
2021/12/04 06:52:22;;;;;;;27.10;7.07;;;;;;;;;;4976659;28;20039;-69
2021/12/04 06:54:57;;;;;;;11.35;5.20;;;;;;;;;;4972008;28;20482;-71
2021/12/04 06:57:23;;;;;;;6.05;3.95;;;;;;;;;;4961816;28;20078;-71
2021/12/04 06:59:52;;;;;;;15.38;6.82;;;;;;;;;;4954655;28;20027;-72
2021/12/04 07:02:18;;;;;;;11.75;7.22;;;;;;;;;;4954007;28;20115;-71
2021/12/04 07:04:44;;;;;;;13.32;8.13;;;;;;;;;;4954259;28;20474;-71
2021/12/04 07:07:12;;;;;;;14.65;8.25;;;;;;;;;;4965025;28;20062;-71
2021/12/04 07:09:39;;;;;;;18.92;9.38;;;;;;;;;;4974089;28;20058;-70
2021/12/04 07:12:05;;;;;;;16.42;8.80;;;;;;;;;;4973244;28;20046;-72
2021/12/04 07:14:31;;;;;;;17.10;9.48;;;;;;;;;;4973609;28;20026;-72
2021/12/04 07:16:59;;;;;;;16.63;9.27;;;;;;;;;;4973588;28;20437;-72
2021/12/04 07:19:25;;;;;;;18.88;10.55;;;;;;;;;;4973888;28;20034;-72
2021/12/04 07:21:51;;;;;;;18.58;10.40;;;;;;;;;;4973973;28;20041;-72
2021/12/04 07:24:17;;;;;;;18.70;10.75;;;;;;;;;;4970314;28;20026;-75
2021/12/04 07:26:43;;;;;;;20.05;10.90;;;;;;;;;;4962767;28;20042;-72
2021/12/04 07:29:09;;;;;;;22.67;11.88;;;;;;;;;;4954173;28;20522;-70
2021/12/04 07:31:37;;;;;;;21.27;11.85;;;;;;;;;;4987914;28;20039;-74
2021/12/04 07:34:04;;;;;;;20.98;11.65;;;;;;;;;;4972979;28;20034;-72
2021/12/04 07:36:30;;;;;;;20.80;11.05;;;;;;;;;;4973023;28;20034;-75
2021/12/04 07:38:56;;;;;;;20.10;11.55;;;;;;;;;;4974354;28;20496;-75
2021/12/04 07:41:22;;;;;;;21.70;12.50;;;;;;;;;;4970688;28;20027;-73
2021/12/04 07:43:48;;;;;;;27.80;14.88;;;;;;;;;;4962317;28;20603;-74
2021/12/04 07:46:14;;;;;;;25.25;15.32;;;;;;;;;;4953633;29;20054;-75
2021/12/04 07:48:40;;;;;;;24.80;14.45;;;;;;;;;;4953819;28;20090;-74
2021/12/04 07:51:06;;;;;;;25.33;13.73;;;;;;;;;;4953392;28;20039;-74
2021/12/04 07:53:32;;;;;;;26.23;15.15;;;;;;;;;;4953444;29;20475;-75
2021/12/04 07:55:59;;;;;;;22.00;13.70;;;;;;;;;;4953029;29;20526;-73
2021/12/04 07:58:25;;;;;;;25.63;15.05;;;;;;;;;;4955578;28;20023;-72
2021/12/04 08:00:51;;;;;;;30.58;16.45;;;;;;;;;;4965378;28;20037;-76
2021/12/04 08:03:16;;;;;;;22.52;11.82;;;;;;;;;;4968347;28;20109;-72
2021/12/04 08:05:44;;;;;;;25.65;14.23;;;;;;;;;;4961344;28;20028;-71
2021/12/04 08:08:10;;;;;;;23.30;14.27;;;;;;;;;;4961243;28;20405;-72
2021/12/04 08:10:36;;;;;;;26.92;15.88;;;;;;;;;;4972134;28;20042;-71
2021/12/04 08:13:03;;;;;;;35.40;16.77;;;;;;;;;;4972269;28;20031;-71
2021/12/04 08:15:31;;;;;;;27.55;15.43;;;;;;;;;;4971964;28;20046;-71
2021/12/04 08:17:56;;;;;;;26.52;15.90;;;;;;;;;;4971456;28;20027;-70
2021/12/04 08:20:25;;;;;;;26.85;14.43;;;;;;;;;;4972665;28;20030;-70
2021/12/04 08:22:51;;;;;;;27.05;14.35;;;;;;;;;;4972061;28;20109;-70
2021/12/04 08:25:18;;;;;;;34.90;16.77;;;;;;;;;;4972763;28;20494;-70
2021/12/04 08:27:46;;;;;;;33.60;16.50;;;;;;;;;;4970564;28;20035;-70
2021/12/04 08:30:16;;;;;;;46.30;18.58;;;;;;;;;;4970884;28;20470;-70
2021/12/04 08:32:42;;;;;;;48.50;18.67;;;;;;;;;;4973595;28;20043;-69
2021/12/04 08:35:10;;;;;;;34.75;18.10;;;;;;;;;;4971080;28;20050;-70
2021/12/04 08:37:36;;;;;;;41.97;18.42;;;;;;;;;;4972900;28;20039;-72
2021/12/04 08:40:09;;;;;;;31.50;16.25;;;;;;;;;;4972907;28;20105;-72
2021/12/04 08:42:34;;;;;;;45.15;16.52;;;;;;;;;;4972155;28;20034;-72
2021/12/04 08:45:00;;;;;;;44.80;15.35;;;;;;;;;;4972035;28;20030;-70
2021/12/04 08:47:26;;;;;;;28.13;14.57;;;;;;;;;;4955971;28;20039;-71
2021/12/04 08:49:52;;;;;;;25.65;12.68;;;;;;;;;;4966791;28;20078;-70
2021/12/04 08:52:18;;;;;;;24.05;12.07;;;;;;;;;;4951958;28;20031;-71
2021/12/04 08:54:45;;;;;;;53.17;12.82;;;;;;;;;;4951467;28;20063;-71
2021/12/04 08:57:11;;;;;;;28.02;13.32;;;;;;;;;;4966689;28;20427;-69
2021/12/04 08:59:37;;;;;;;39.30;14.02;;;;;;;;;;4952895;28;20487;-70
2021/12/04 09:02:03;;;;;;;41.13;13.88;;;;;;;;;;4952881;28;20127;-71
2021/12/04 09:04:35;;;;;;;86.75;18.88;;;;;;;;;;4952974;29;20063;-70
2021/12/04 09:07:02;;;;;;;73.53;16.35;;;;;;;;;;4966086;28;20041;-70
2021/12/04 09:09:28;;;;;;;41.78;16.80;;;;;;;;;;4974470;28;20030;-71
2021/12/04 09:12:00;;;;;;;66.00;18.77;;;;;;;;;;4974088;28;20027;-71
2021/12/04 09:14:30;;;;;;;63.92;17.77;;;;;;;;;;4975952;28;20066;-73
2021/12/04 09:16:59;;;;;;;44.45;17.17;;;;;;;;;;4975234;28;20070;-69
2021/12/04 09:19:25;;;;;;;66.13;19.00;;;;;;;;;;4975155;28;20050;-72
2021/12/04 09:21:53;;;;;;;31.85;16.77;;;;;;;;;;4976200;28;20162;-74
2021/12/04 09:24:25;;;;;;;49.65;16.60;;;;;;;;;;4974885;28;20031;-75
2021/12/04 09:26:59;;;;;;;53.53;16.02;;;;;;;;;;4975887;28;20501;-69
2021/12/04 09:35:13;;;;;;;19.50;11.35;;;;;;;;;;4974605;28;20050;-74
2021/12/04 09:59:54;;;;;;;17.20;10.18;;;;;;;;;;4974797;28;20085;-71
2021/12/04 10:02:33;;;;;;;21.60;10.77;;;;;;;;;;4974646;28;20069;-71
2021/12/04 10:13:31;;;;;;;26.88;11.55;;;;;;;;;;4974229;28;20031;-70
2021/12/04 10:32:24;;;;;;;17.02;10.65;;;;;;;;;;4973371;28;20038;-72
2021/12/04 10:34:48;;;;;;;24.23;11.77;;;;;;;;;;4973570;28;20176;-69
2021/12/04 10:37:22;;;;;;;17.77;11.88;;;;;;;;;;4974386;28;20027;-70
2021/12/04 10:39:48;;;;;;;29.92;12.30;;;;;;;;;;4973202;28;20031;-71
2021/12/04 10:42:18;;;;;;;31.67;12.20;;;;;;;;;;4980823;28;20038;-70
2021/12/04 10:44:51;;;;;;;23.27;12.23;;;;;;;;;;4991080;28;20034;-72
2021/12/04 10:47:26;;;;;;;23.60;12.25;;;;;;;;;;4993341;28;20037;-70
2021/12/04 10:55:15;;;;;;;54.13;17.00;;;;;;;;;;4992834;28;20038;-70
2021/12/04 11:02:51;;;;;;;29.52;16.05;;;;;;;;;;4993217;28;20431;-69
2021/12/04 11:38:47;;;;;;;17.45;9.13;;;;;;;;;;4973056;28;20158;-72
2021/12/04 11:43:57;;;;;;;13.15;7.90;;;;;;;;;;4972402;28;20121;-69
2021/12/04 11:46:40;;;;;;;11.35;7.00;;;;;;;;;;4972406;28;20470;-69
2021/12/04 11:49:20;;;;;;;14.38;8.20;;;;;;;;;;4972967;28;20042;-71
2021/12/04 11:52:02;;;;;;;22.67;7.85;;;;;;;;;;4972302;28;20089;-71
2021/12/04 11:54:42;;;;;;;18.25;6.75;;;;;;;;;;4952738;28;20122;-69
2021/12/04 11:57:11;;;;;;;15.43;7.03;;;;;;;;;;4953616;28;20071;-69
2021/12/04 11:59:40;;;;;;;18.20;6.53;;;;;;;;;;4953173;28;20027;-69
2021/12/04 12:02:10;;;;;;;10.02;5.85;;;;;;;;;;4953164;28;20074;-69
2021/12/04 12:04:39;;;;;;;21.27;11.25;;;;;;;;;;4953185;28;20082;-69
2021/12/04 12:07:15;;;;;;;14.02;8.13;;;;;;;;;;4952749;28;20062;-71
2021/12/04 12:09:42;;;;;;;15.02;8.07;;;;;;;;;;4952664;28;20039;-69
2021/12/04 12:12:13;;;;;;;36.28;19.17;;;;;;;;;;4952815;28;20031;-70
2021/12/04 12:14:50;;;;;;;94.30;39.97;;;;;;;;;;4953610;28;20047;-70
2021/12/04 12:17:39;;;;;;;29.70;12.82;;;;;;;;;;4953022;28;20081;-69
2021/12/04 12:20:12;;;;;;;9.95;5.93;;;;;;;;;;4953271;28;20110;-70
2021/12/04 12:34:11;;;;;;;17.20;6.10;;;;;;;;;;4952822;28;20039;-70
2021/12/04 12:36:36;;;;;;;33.83;15.40;;;;;;;;;;4952889;28;20119;-70
2021/12/04 12:39:05;;;;;;;45.22;19.48;;;;;;;;;;4953216;28;20023;-69
2021/12/04 12:41:40;;;;;;;33.50;11.07;;;;;;;;;;4952874;28;20031;-70
2021/12/04 12:44:17;;;;;;;12.68;6.05;;;;;;;;;;4957938;28;20062;-69
2021/12/04 12:47:16;;;;;;;14.43;6.57;;;;;;;;;;4987796;28;20042;-70
2021/12/04 12:49:44;;;;;;;18.40;6.45;;;;;;;;;;4959489;28;20074;-67
2021/12/04 12:52:10;;;;;;;10.43;5.05;;;;;;;;;;4955812;28;20074;-68
2021/12/04 12:54:52;;;;;;;9.18;5.63;;;;;;;;;;4971205;28;20487;-70
2021/12/04 12:57:20;;;;;;;15.85;5.85;;;;;;;;;;4975851;28;20045;-72
2021/12/04 13:14:29;;;;;;;11.75;6.30;;;;;;;;;;4974261;28;20574;-71
2021/12/04 13:17:07;;;;;;;26.98;8.38;;;;;;;;;;4975157;28;20035;-69
2021/12/04 13:19:36;;;;;;;16.83;7.15;;;;;;;;;;4976192;28;20456;-71
2021/12/04 13:22:07;;;;;;;12.43;6.85;;;;;;;;;;4974512;28;20474;-71
2021/12/04 13:24:36;;;;;;;14.15;7.43;;;;;;;;;;4974983;28;20031;-73
2021/12/04 13:29:40;;;;;;;;;;;;;;;;;;4973748;28;20394;-71
2021/12/04 13:32:08;;;;;;;14.05;6.40;;;;;;;;;;4968533;28;19925;-72
2021/12/04 13:34:35;;;;;;;14.70;7.28;;;;;;;;;;4974028;28;20133;-70
2021/12/04 13:37:01;;;;;;;12.43;7.25;;;;;;;;;;4973396;28;20062;-71
2021/12/04 13:39:27;;;;;;;20.08;9.65;;;;;;;;;;4974112;28;20031;-70
2021/12/04 13:41:54;;;;;;;19.67;10.27;;;;;;;;;;5005952;28;20399;-71
2021/12/04 13:44:22;;;;;;;10.82;8.32;;;;;;;;;;4969287;28;20493;-71
2021/12/04 13:46:51;;;;;;;11.90;7.10;;;;;;;;;;4966072;28;20454;-70
2021/12/04 13:49:20;;;;;;;17.23;8.13;;;;;;;;;;4967590;28;20382;-71
2021/12/04 13:51:57;;;;;;;15.93;10.63;;;;;;;;;;4971109;28;20398;-72
2021/12/04 13:54:27;;;;;;;22.17;10.15;;;;;;;;;;4963245;28;20046;-72
2021/12/04 13:56:53;;;;;;;12.57;8.18;;;;;;;;;;4973167;28;20050;-72
2021/12/04 13:59:27;;;;;;;11.13;7.22;;;;;;;;;;4970506;28;20387;-70
2021/12/04 14:01:54;;;;;;;12.65;7.82;;;;;;;;;;4966278;28;20035;-73
2021/12/04 14:04:20;;;;;;;16.45;8.15;;;;;;;;;;4975093;28;20050;-73
2021/12/04 14:06:51;;;;;;;20.20;9.10;;;;;;;;;;4974982;28;20072;-70
2021/12/04 14:09:18;;;;;;;17.33;10.30;;;;;;;;;;4973752;28;20117;-70
2021/12/04 14:11:46;;;;;;;19.77;14.02;;;;;;;;;;4969372;28;20031;-72
2021/12/04 14:14:20;;;;;;;18.60;13.55;;;;;;;;;;4965174;28;20569;-71
2021/12/04 14:16:51;;;;;;;23.13;13.05;;;;;;;;;;4973564;28;20034;-71
2021/12/04 14:19:28;;;;;;;26.73;12.95;;;;;;;;;;4975270;28;20050;-72
2021/12/04 14:21:59;;;;;;;24.02;13.20;;;;;;;;;;4974521;28;20038;-72
2021/12/04 14:24:34;;;;;;;26.10;15.55;;;;;;;;;;4974643;28;20038;-72
2021/12/04 14:27:03;;;;;;;32.78;17.52;;;;;;;;;;4974402;28;20035;-73
2021/12/04 14:29:42;;;;;;;31.83;17.00;;;;;;;;;;4974361;28;20046;-74
2021/12/04 14:32:10;;;;;;;27.67;14.68;;;;;;;;;;4974320;28;20031;-72
2021/12/04 14:34:36;;;;;;;29.52;14.40;;;;;;;;;;4974194;28;20023;-72
2021/12/04 14:37:04;;;;;;;19.08;12.20;;;;;;;;;;4973933;28;20043;-70
2021/12/04 14:39:30;;;;;;;21.02;12.82;;;;;;;;;;4974198;28;20389;-72
2021/12/04 14:41:56;;;;;;;20.73;13.32;;;;;;;;;;4974049;28;20130;-74
2021/12/04 14:44:23;;;;;;;20.73;12.68;;;;;;;;;;4973850;28;20374;-73
2021/12/04 14:46:49;;;;;;;18.70;11.75;;;;;;;;;;4973981;28;20461;-73
2021/12/04 14:49:15;;;;;;;20.13;12.18;;;;;;;;;;4974194;28;20106;-71
2021/12/04 14:51:41;;;;;;;21.38;12.70;;;;;;;;;;4973756;28;20062;-72
2021/12/04 14:54:07;;;;;;;22.60;13.38;;;;;;;;;;4974999;28;20065;-72
2021/12/04 14:56:33;;;;;;;21.33;12.65;;;;;;;;;;4974775;28;20035;-72
2021/12/04 14:59:00;;;;;;;24.20;13.40;;;;;;;;;;4974176;28;20037;-72
2021/12/04 15:01:33;;;;;;;21.35;12.38;;;;;;;;;;4972972;28;20058;-71
2021/12/04 15:04:02;;;;;;;23.17;12.95;;;;;;;;;;4966630;28;20393;-72
2021/12/04 15:06:30;;;;;;;26.88;12.95;;;;;;;;;;4965184;28;20092;-70
2021/12/04 15:09:10;;;;;;;20.85;12.52;;;;;;;;;;4972550;28;20441;-70
2021/12/04 15:11:40;;;;;;;27.30;13.38;;;;;;;;;;4973113;28;20039;-69
2021/12/04 15:14:14;;;;;;;23.02;12.90;;;;;;;;;;4972209;28;20046;-72
2021/12/04 15:16:52;;;;;;;22.50;12.95;;;;;;;;;;4972327;28;20039;-72
2021/12/04 15:19:43;;;;;;;22.40;13.05;;;;;;;;;;4972236;28;20031;-71
2021/12/04 15:22:24;;;;;;;30.73;13.10;;;;;;;;;;4973329;28;20043;-71
2021/12/04 15:24:50;;;;;;;25.05;13.23;;;;;;;;;;4973263;28;20038;-72
2021/12/04 15:27:22;;;;;;;24.42;13.88;;;;;;;;;;4968658;28;20027;-71
2021/12/04 15:29:53;;;;;;;26.17;14.55;;;;;;;;;;4971910;28;20129;-72
2021/12/04 15:32:24;;;;;;;28.15;14.55;;;;;;;;;;4977559;28;20035;-72
2021/12/04 15:35:00;;;;;;;24.85;14.32;;;;;;;;;;4987119;28;20030;-74
2021/12/04 15:37:27;;;;;;;36.67;21.42;;;;;;;;;;4983337;28;20041;-72
2021/12/04 15:39:53;;;;;;;39.85;21.05;;;;;;;;;;4971089;28;20030;-69
2021/12/04 15:42:29;;;;;;;33.08;19.33;;;;;;;;;;4972321;28;20026;-75
2021/12/04 15:45:57;;;;;;;40.55;20.00;;;;;;;;;;4972675;28;20042;-73
2021/12/04 15:48:01;;;;;;;37.28;20.02;;;;;;;;;;4977988;28;20069;-73
2021/12/04 15:53:11;;;;;;;37.38;20.77;;;;;;;;;;4971505;28;20039;-75
2021/12/04 15:55:43;;;;;;;39.95;22.67;;;;;;;;;;4971403;28;20046;-72
2021/12/04 15:58:15;;;;;;;51.08;22.92;;;;;;;;;;4972238;28;20034;-70
2021/12/04 16:00:49;;;;;;;42.90;21.05;;;;;;;;;;4971491;28;20046;-71
2021/12/04 16:03:16;;;;;;;34.90;21.27;;;;;;;;;;4970821;28;20118;-69
2021/12/04 16:05:49;;;;;;;45.88;22.38;;;;;;;;;;4971376;28;20089;-72
2021/12/04 16:08:18;;;;;;;41.50;23.00;;;;;;;;;;4971787;28;20039;-70
2021/12/04 16:10:46;;;;;;;50.08;22.42;;;;;;;;;;4971235;28;20090;-68
2021/12/04 16:13:17;;;;;;;36.90;20.85;;;;;;;;;;4971212;28;20398;-68
2021/12/04 16:15:43;;;;;;;35.78;20.77;;;;;;;;;;4972442;28;20033;-67
2021/12/04 16:18:09;;;;;;;33.63;18.95;;;;;;;;;;5007227;28;20102;-70
2021/12/04 16:20:37;;;;;;;28.42;17.08;;;;;;;;;;4974923;28;20038;-68
2021/12/04 16:23:04;;;;;;;29.70;15.77;;;;;;;;;;4975177;28;20081;-68
2021/12/04 16:25:37;;;;;;;30.00;17.05;;;;;;;;;;4973050;28;20478;-71
2021/12/04 16:35:57;;;;;;;30.60;17.17;;;;;;;;;;4990117;28;20049;-71
2021/12/04 16:38:24;;;;;;;25.13;14.25;;;;;;;;;;4992131;28;20282;-73
2021/12/04 16:40:53;;;;;;;28.90;15.25;;;;;;;;;;4970577;28;20042;-69
2021/12/04 16:44:10;;;;;;;30.67;17.38;;;;;;;;;;4969305;28;20034;-68
2021/12/04 16:46:13;;;;;;;26.58;14.50;;;;;;;;;;4982532;28;20506;-69
2021/12/04 16:48:46;;;;;;;28.10;16.33;;;;;;;;;;4974427;28;20050;-69
2021/12/04 16:59:07;;;;;;;28.52;17.73;;;;;;;;;;4972207;28;20047;-72
2021/12/04 17:01:37;;;;;;;38.92;19.98;;;;;;;;;;4974489;28;20498;-68
2021/12/04 17:04:04;;;;;;;37.00;20.17;;;;;;;;;;4973274;28;20474;-72
2021/12/04 17:06:30;;;;;;;46.15;26.55;;;;;;;;;;4974298;28;20094;-69
2021/12/04 17:08:56;;;;;;;57.58;30.73;;;;;;;;;;4974388;28;20034;-67
2021/12/04 17:11:22;;;;;;;43.03;24.77;;;;;;;;;;4975103;28;20086;-68
2021/12/04 17:13:48;;;;;;;27.55;16.00;;;;;;;;;;4972360;28;20049;-68
2021/12/04 17:16:14;;;;;;;26.33;14.68;;;;;;;;;;4974453;28;20027;-70
2021/12/04 17:18:50;;;;;;;22.63;13.32;;;;;;;;;;4972864;28;20038;-69
2021/12/04 17:21:17;;;;;;;27.15;15.70;;;;;;;;;;4972973;28;20035;-69
2021/12/04 17:23:43;;;;;;;30.83;16.90;;;;;;;;;;4974788;28;20019;-69
2021/12/04 17:26:09;;;;;;;48.92;22.30;;;;;;;;;;4975098;28;20134;-73
2021/12/04 17:28:42;;;;;;;42.92;18.88;;;;;;;;;;4973420;28;20053;-74
2021/12/04 17:31:08;;;;;;;40.67;19.65;;;;;;;;;;4974359;28;20027;-72
2021/12/04 17:33:34;;;;;;;47.97;22.38;;;;;;;;;;4974618;28;20056;-73
2021/12/04 17:36:00;;;;;;;34.53;19.95;;;;;;;;;;4974359;28;20125;-72
2021/12/04 17:38:26;;;;;;;40.80;21.75;;;;;;;;;;4972900;28;20038;-73
2021/12/04 17:40:52;;;;;;;48.85;18.60;;;;;;;;;;4973905;28;20042;-72
2021/12/04 17:43:17;;;;;;;29.08;16.25;;;;;;;;;;4973946;28;20393;-71
2021/12/04 17:45:44;;;;;;;33.10;17.75;;;;;;;;;;4973432;28;20109;-69
2021/12/04 17:48:11;;;;;;;26.30;14.35;;;;;;;;;;4973855;28;20031;-68
2021/12/04 17:50:43;;;;;;;31.45;17.90;;;;;;;;;;4974117;28;20069;-70
2021/12/04 17:53:10;;;;;;;40.13;19.05;;;;;;;;;;4974358;28;20038;-69
2021/12/04 17:55:38;;;;;;;44.90;19.95;;;;;;;;;;4974507;28;20034;-69
2021/12/04 17:58:04;;;;;;;37.60;18.70;;;;;;;;;;4972935;28;20117;-68
2021/12/04 18:00:46;;;;;;;34.90;18.65;;;;;;;;;;4973963;28;20098;-68